Time;durP1;ratioP1;P1;durP2;ratioP2;P2;SDS_P1;SDS_P2;PMS_P1;PMS_P2;Temp;Humidity;BMP_temperature;BMP_pressure;BME280_temperature;BME280_humidity;BME280_pressure;Samples;Min_cycle;Max_cycle;Signal;HPM_P1;HPM_P2
2022/12/11 00:01:53;;;;;;;13.33;8.70;;;;;;;-2.43;87.10;94808.63;4967789;28;20197;-81
2022/12/11 00:04:18;;;;;;;12.47;8.53;;;;;;;-2.35;87.26;94809.03;4966381;28;20228;-81
2022/12/11 00:06:43;;;;;;;12.83;8.97;;;;;;;-2.35;86.53;94816.66;4954090;28;20194;-81
2022/12/11 00:09:09;;;;;;;12.97;8.93;;;;;;;-2.37;87.27;94807.47;4973661;28;20568;-81
2022/12/11 00:11:35;;;;;;;11.83;8.53;;;;;;;-2.39;86.89;94806.72;4952661;28;20552;-81
2022/12/11 00:14:00;;;;;;;12.10;9.03;;;;;;;-2.42;87.04;94806.91;4963507;28;20193;-81
2022/12/11 00:16:25;;;;;;;12.27;8.57;;;;;;;-2.48;86.89;94802.97;4978081;28;20259;-82
2022/12/11 00:18:50;;;;;;;14.30;8.50;;;;;;;-2.48;87.38;94807.25;4963492;28;20538;-81
2022/12/11 00:21:16;;;;;;;16.03;9.10;;;;;;;-2.54;87.23;94802.53;4972539;28;20200;-82
2022/12/11 00:23:41;;;;;;;14.37;9.50;;;;;;;-2.55;86.87;94800.91;4979945;28;20196;-82
2022/12/11 00:26:08;;;;;;;13.40;9.73;;;;;;;-2.63;87.25;94796.25;4959808;28;20222;-81
2022/12/11 00:28:34;;;;;;;13.10;9.13;;;;;;;-2.68;87.34;94788.88;4970514;28;20188;-81
2022/12/11 00:31:07;;;;;;;13.33;9.63;;;;;;;-2.73;87.82;94795.94;4971536;28;20326;-82
2022/12/11 00:33:33;;;;;;;15.37;9.43;;;;;;;-2.80;87.68;94799.75;4959572;28;20216;-80
2022/12/11 00:35:58;;;;;;;12.63;8.80;;;;;;;-2.86;88.17;94795.00;4960870;28;20220;-82
2022/12/11 00:38:24;;;;;;;13.00;9.00;;;;;;;-2.89;87.96;94793.44;4952422;28;20486;-82
2022/12/11 00:40:49;;;;;;;14.23;9.63;;;;;;;-2.94;87.63;94794.59;4975228;28;20209;-81
2022/12/11 00:43:14;;;;;;;16.27;9.83;;;;;;;-2.95;88.37;94795.50;4958610;28;20628;-82
2022/12/11 00:45:44;;;;;;;14.17;9.13;;;;;;;-2.93;88.69;94796.22;4968349;28;20211;-81
2022/12/11 00:48:10;;;;;;;13.20;9.23;;;;;;;-2.86;88.52;94800.88;4966217;28;20720;-80
2022/12/11 00:50:37;;;;;;;11.90;8.67;;;;;;;-2.77;88.93;94802.09;4972532;28;20190;-81
2022/12/11 00:53:03;;;;;;;13.67;9.10;;;;;;;-2.68;88.90;94795.69;4956789;28;20685;-81
2022/12/11 00:55:28;;;;;;;14.47;9.27;;;;;;;-2.59;88.13;94797.69;4955127;28;20213;-82
2022/12/11 00:57:55;;;;;;;13.00;9.43;;;;;;;-2.54;87.67;94797.47;4976108;28;20196;-81
2022/12/11 01:00:21;;;;;;;12.80;9.30;;;;;;;-2.47;87.62;94796.16;4959683;28;20195;-81
2022/12/11 01:02:47;;;;;;;14.73;9.60;;;;;;;-2.51;87.75;94807.44;4953925;28;20192;-81
2022/12/11 01:05:12;;;;;;;15.20;8.97;;;;;;;-2.48;87.54;94808.06;4963557;28;20616;-82
2022/12/11 01:07:37;;;;;;;14.17;9.20;;;;;;;-2.49;87.60;94811.53;4974285;28;20199;-81
2022/12/11 01:12:47;;;;;;;16.27;9.47;;;;;;;-2.55;87.54;94814.44;4972084;28;20215;-83
2022/12/11 01:15:12;;;;;;;13.37;8.70;;;;;;;-2.65;87.57;94816.69;4945635;28;20217;-81
2022/12/11 01:17:38;;;;;;;17.70;10.03;;;;;;;-2.71;87.87;94818.72;4963432;28;20192;-81
2022/12/11 01:20:04;;;;;;;16.30;9.83;;;;;;;-2.74;88.43;94816.34;4969600;28;20186;-82
2022/12/11 01:22:29;;;;;;;13.43;9.73;;;;;;;-2.82;87.86;94824.41;4963294;28;20195;-82
2022/12/11 01:24:55;;;;;;;18.23;10.97;;;;;;;-2.91;88.43;94827.47;4962876;28;20208;-80
2022/12/11 01:27:20;;;;;;;15.60;10.07;;;;;;;-2.95;88.98;94824.25;4972061;28;20197;-80
2022/12/11 01:29:45;;;;;;;16.13;10.10;;;;;;;-3.03;88.74;94825.59;4959612;28;20558;-81
2022/12/11 01:32:11;;;;;;;16.73;11.00;;;;;;;-3.01;89.25;94833.94;4959276;28;20184;-81
2022/12/11 01:34:36;;;;;;;16.93;10.70;;;;;;;-3.04;89.87;94840.00;4974646;28;20228;-80
2022/12/11 01:37:01;;;;;;;16.27;10.80;;;;;;;-3.10;89.19;94827.63;4960013;28;20302;-81
2022/12/11 01:39:27;;;;;;;18.10;11.80;;;;;;;-3.15;89.64;94832.97;4963778;28;20188;-81
2022/12/11 01:41:59;;;;;;;15.87;10.87;;;;;;;-3.08;89.30;94833.47;4959440;28;20667;-80
2022/12/11 01:44:24;;;;;;;17.27;11.83;;;;;;;-3.16;89.19;94833.88;4976349;28;20669;-81
2022/12/11 01:46:49;;;;;;;18.17;11.43;;;;;;;-3.22;89.99;94841.00;4974677;28;20292;-81
2022/12/11 01:49:16;;;;;;;18.33;12.23;;;;;;;-3.26;90.01;94845.44;4960919;28;20193;-80
2022/12/11 01:51:48;;;;;;;21.33;11.73;;;;;;;-3.28;90.35;94841.31;4960685;28;20201;-81
2022/12/11 01:54:16;;;;;;;17.00;11.67;;;;;;;-3.31;90.86;94844.84;4975501;28;20294;-81
2022/12/11 01:56:44;;;;;;;22.13;13.47;;;;;;;-3.31;90.53;94842.31;4962470;28;20575;-81
2022/12/11 01:59:09;;;;;;;22.67;13.37;;;;;;;-3.33;90.08;94844.13;4959123;28;20222;-80
2022/12/11 02:01:53;;;;;;;22.73;13.33;;;;;;;-3.32;90.29;94847.47;4963571;28;20193;-81
2022/12/11 02:04:18;;;;;;;21.70;12.00;;;;;;;-3.38;90.41;94845.25;4958306;28;20251;-81
2022/12/11 02:06:46;;;;;;;22.77;13.77;;;;;;;-3.38;89.99;94846.06;4956812;28;20189;-80
2022/12/11 02:09:22;;;;;;;20.07;12.67;;;;;;;-3.48;89.02;94844.91;4977606;28;20227;-81
2022/12/11 02:12:12;;;;;;;20.93;12.37;;;;;;;-3.53;88.28;94850.25;4958367;28;20193;-80
2022/12/11 02:14:47;;;;;;;19.03;12.47;;;;;;;-3.57;88.06;94850.47;4976134;28;20208;-82
2022/12/11 02:17:16;;;;;;;17.73;11.57;;;;;;;-3.68;87.99;94855.28;4961220;28;20203;-79
2022/12/11 02:20:00;;;;;;;18.47;12.13;;;;;;;-3.67;87.97;94854.38;4978667;28;20189;-80
2022/12/11 02:22:51;;;;;;;18.63;11.53;;;;;;;-3.80;87.87;94849.97;4978120;28;20184;-80
2022/12/11 02:25:25;;;;;;;17.93;9.63;;;;;;;-3.90;88.43;94847.94;4970255;28;20243;-81
2022/12/11 02:27:55;;;;;;;17.83;11.17;;;;;;;-3.96;88.88;94840.66;4980315;28;20243;-81
2022/12/11 02:30:21;;;;;;;16.87;10.73;;;;;;;-3.90;88.71;94841.16;4983594;28;20255;-79
2022/12/11 02:32:53;;;;;;;19.13;11.57;;;;;;;-3.91;88.50;94836.16;4968141;28;20192;-83
2022/12/11 02:35:23;;;;;;;17.93;10.40;;;;;;;-4.12;88.70;94840.63;4964523;28;20224;-83
2022/12/11 02:37:56;;;;;;;15.63;10.10;;;;;;;-4.03;88.95;94835.91;4972173;28;20199;-81
2022/12/11 02:40:24;;;;;;;18.37;11.57;;;;;;;-4.00;88.50;94839.97;4978017;28;20195;-81
2022/12/11 02:42:49;;;;;;;17.67;10.27;;;;;;;-4.03;88.36;94835.91;4961585;28;20813;-82
2022/12/11 02:45:16;;;;;;;17.07;10.47;;;;;;;-4.01;88.31;94841.69;4971518;28;20240;-81
2022/12/11 02:47:43;;;;;;;17.07;10.80;;;;;;;-3.94;88.55;94844.75;4949856;28;20265;-81
2022/12/11 02:50:12;;;;;;;18.33;11.00;;;;;;;-3.90;87.85;94843.69;4957992;28;20619;-82
2022/12/11 02:52:40;;;;;;;21.67;11.47;;;;;;;-3.94;88.54;94839.69;4973573;28;20283;-82
2022/12/11 02:55:06;;;;;;;22.20;11.03;;;;;;;-3.71;87.80;94843.56;4966460;28;20231;-82
2022/12/11 02:57:39;;;;;;;21.07;12.37;;;;;;;-3.67;87.75;94844.25;4958141;28;20660;-81
2022/12/11 03:00:05;;;;;;;21.90;12.67;;;;;;;-3.60;87.88;94840.50;4959855;28;20189;-81
2022/12/11 03:02:30;;;;;;;21.73;12.73;;;;;;;-3.58;88.30;94839.50;4970946;28;20200;-81
2022/12/11 03:04:56;;;;;;;22.10;12.80;;;;;;;-3.56;88.91;94840.22;4948379;28;20217;-81
2022/12/11 03:07:26;;;;;;;21.87;12.27;;;;;;;-3.47;88.40;94841.47;4964828;28;20589;-81
2022/12/11 03:09:52;;;;;;;23.73;12.83;;;;;;;-3.39;87.96;94838.53;4972998;28;20212;-81
2022/12/11 03:12:32;;;;;;;22.03;13.20;;;;;;;-3.30;87.60;94838.03;4967480;28;20628;-82
2022/12/11 03:14:59;;;;;;;24.27;13.37;;;;;;;-3.27;87.53;94837.88;4960888;28;20213;-83
2022/12/11 03:17:59;;;;;;;23.77;14.17;;;;;;;-3.31;88.38;94841.50;4963018;28;20251;-82
2022/12/11 03:20:42;;;;;;;26.03;14.47;;;;;;;-3.22;87.95;94841.81;4971530;28;20287;-82
2022/12/11 03:23:10;;;;;;;27.00;15.30;;;;;;;-3.18;88.49;94843.31;4961949;28;20303;-82
2022/12/11 03:25:58;;;;;;;26.63;15.20;;;;;;;-3.12;88.18;94844.69;4960477;28;20219;-83
2022/12/11 03:28:36;;;;;;;24.93;14.33;;;;;;;-3.08;88.03;94842.81;4966303;28;20209;-81
2022/12/11 03:31:04;;;;;;;26.53;15.40;;;;;;;-3.01;88.52;94841.56;4956832;28;20209;-81
2022/12/11 03:33:33;;;;;;;27.27;15.53;;;;;;;-3.05;88.08;94835.00;4974985;28;20601;-81
2022/12/11 03:36:03;;;;;;;23.23;14.03;;;;;;;-2.97;88.46;94843.03;4951221;28;20213;-81
2022/12/11 03:38:41;;;;;;;26.53;15.30;;;;;;;-2.96;88.65;94832.78;4962979;28;20675;-81
2022/12/11 03:41:07;;;;;;;26.80;14.83;;;;;;;-2.91;88.12;94842.72;4957227;28;20693;-81
2022/12/11 03:43:33;;;;;;;25.30;15.27;;;;;;;-2.96;88.44;94837.88;4962916;28;20216;-81
2022/12/11 03:45:58;;;;;;;27.27;15.00;;;;;;;-2.90;88.65;94851.97;4970321;28;20197;-80
2022/12/11 03:48:27;;;;;;;27.97;15.90;;;;;;;-2.85;88.35;94847.44;4963793;28;20220;-80
2022/12/11 03:50:53;;;;;;;25.43;14.97;;;;;;;-2.78;88.11;94846.19;4962537;28;20190;-81
2022/12/11 03:53:19;;;;;;;25.47;14.07;;;;;;;-2.74;87.71;94837.53;4967894;28;20681;-82
2022/12/11 03:55:45;;;;;;;25.43;15.23;;;;;;;-2.73;88.31;94845.97;4971613;28;20282;-80
2022/12/11 03:58:10;;;;;;;27.53;15.70;;;;;;;-2.74;87.68;94846.84;4977712;28;20661;-81
2022/12/11 04:00:36;;;;;;;27.40;14.87;;;;;;;-2.70;87.72;94838.16;4956767;28;20189;-79
2022/12/11 04:03:13;;;;;;;24.30;14.67;;;;;;;-2.65;87.52;94834.47;4951438;28;20192;-81
2022/12/11 04:05:44;;;;;;;31.17;15.23;;;;;;;-2.66;87.77;94837.88;4975274;28;20208;-80
2022/12/11 04:08:10;;;;;;;26.30;15.27;;;;;;;-2.64;87.74;94835.28;4958999;28;20232;-80
2022/12/11 04:10:35;;;;;;;25.50;15.23;;;;;;;-2.78;87.86;94830.13;4951390;28;20196;-80
2022/12/11 04:13:00;;;;;;;26.33;13.77;;;;;;;-2.88;88.68;94833.19;4957899;28;20227;-79
2022/12/11 04:15:26;;;;;;;25.63;14.67;;;;;;;-2.89;88.62;94833.28;4958285;28;20232;-80
2022/12/11 04:26:08;;;;;;;24.10;13.57;;;;;;;-2.73;87.90;94813.75;4972509;28;20231;-80
2022/12/11 04:28:34;;;;;;;24.77;14.67;;;;;;;-2.73;87.92;94808.66;4969312;28;20216;-81
2022/12/11 04:31:00;;;;;;;25.23;14.10;;;;;;;-2.80;88.13;94809.91;4973556;28;20203;-81
2022/12/11 04:33:25;;;;;;;22.43;13.43;;;;;;;-2.79;88.17;94814.06;4976009;28;20177;-83
2022/12/11 04:35:50;;;;;;;22.80;13.37;;;;;;;-2.64;88.42;94809.88;4952910;28;20220;-82
2022/12/11 04:38:16;;;;;;;25.10;13.90;;;;;;;-2.59;87.93;94808.69;4970829;28;20221;-81
2022/12/11 04:40:41;;;;;;;25.53;13.47;;;;;;;-2.65;87.70;94806.50;4958299;28;20188;-80
2022/12/11 04:43:06;;;;;;;21.93;12.97;;;;;;;-2.51;87.43;94809.97;4971644;28;20193;-80
2022/12/11 04:45:32;;;;;;;24.27;13.73;;;;;;;-2.65;87.42;94806.50;4966675;28;20735;-81
2022/12/11 04:47:58;;;;;;;25.03;13.50;;;;;;;-2.50;87.48;94814.16;4961590;28;20240;-81
2022/12/11 04:50:23;;;;;;;21.87;13.33;;;;;;;-2.66;87.68;94809.94;4959513;28;20331;-80
2022/12/11 04:52:49;;;;;;;23.73;14.17;;;;;;;-2.70;88.00;94810.19;4970480;28;20603;-81
2022/12/11 04:55:15;;;;;;;26.70;14.13;;;;;;;-2.60;88.21;94818.94;4974313;28;20219;-82
2022/12/11 04:57:40;;;;;;;21.67;12.53;;;;;;;-2.60;87.76;94809.59;4976357;28;20192;-83
2022/12/11 05:00:08;;;;;;;19.93;12.47;;;;;;;-2.60;87.49;94812.13;4967168;28;20689;-82
2022/12/11 05:02:35;;;;;;;24.23;13.13;;;;;;;-2.63;87.72;94808.97;4986162;28;20189;-80
2022/12/11 05:05:02;;;;;;;18.40;11.33;;;;;;;-2.50;87.21;94809.06;4963653;28;20203;-81
2022/12/11 05:07:27;;;;;;;21.97;12.17;;;;;;;-2.63;87.28;94804.69;4961368;28;20219;-81
2022/12/11 05:09:53;;;;;;;20.50;11.93;;;;;;;-2.51;86.66;94804.91;4982423;28;20200;-82
2022/12/11 05:12:18;;;;;;;24.83;12.40;;;;;;;-2.51;86.88;94807.44;4972035;28;20192;-82
2022/12/11 05:14:43;;;;;;;27.17;15.40;;;;;;;-2.57;87.05;94804.31;4973924;28;20228;-82
2022/12/11 05:17:09;;;;;;;21.07;12.73;;;;;;;-2.54;87.33;94805.06;4967540;28;20191;-81
2022/12/11 05:19:34;;;;;;;24.47;14.07;;;;;;;-2.55;87.03;94806.00;4951774;28;20589;-82
2022/12/11 05:21:59;;;;;;;20.33;12.47;;;;;;;-2.58;87.01;94802.69;4961401;28;20224;-81
2022/12/11 05:24:24;;;;;;;19.43;10.87;;;;;;;-2.75;87.14;94795.19;4958021;28;20209;-82
2022/12/11 05:26:50;;;;;;;20.10;11.47;;;;;;;-2.55;86.43;94783.94;4964543;28;20810;-82
2022/12/11 05:29:15;;;;;;;18.10;10.60;;;;;;;-2.51;86.07;94785.38;4965887;28;20189;-80
2022/12/11 05:31:40;;;;;;;19.93;10.90;;;;;;;-2.58;85.70;94786.63;4942699;28;20224;-80
2022/12/11 05:34:06;;;;;;;19.43;10.07;;;;;;;-2.55;85.19;94788.19;4962265;28;20185;-81
2022/12/11 05:36:32;;;;;;;18.10;10.50;;;;;;;-2.61;84.28;94785.09;4965759;28;20212;-80
2022/12/11 05:38:58;;;;;;;17.97;10.30;;;;;;;-2.69;84.65;94791.50;4974838;28;20185;-81
2022/12/11 05:41:26;;;;;;;15.30;9.07;;;;;;;-2.65;84.78;94791.25;4974568;28;20188;-81
2022/12/11 05:43:52;;;;;;;19.53;11.63;;;;;;;-2.76;85.65;94783.41;4971801;28;20653;-81
2022/12/11 05:46:23;;;;;;;18.67;11.03;;;;;;;-2.71;85.00;94780.63;4964376;28;20182;-80
2022/12/11 05:48:51;;;;;;;16.27;10.87;;;;;;;-2.77;86.01;94776.69;4959284;28;20188;-81
2022/12/11 05:51:17;;;;;;;18.00;10.83;;;;;;;-2.86;86.40;94777.19;4971992;28;20703;-81
2022/12/11 05:53:43;;;;;;;19.97;10.90;;;;;;;-3.01;87.54;94768.69;4965663;28;20189;-81
2022/12/11 05:56:17;;;;;;;19.20;10.77;;;;;;;-3.06;87.57;94772.41;4983402;28;20202;-80
2022/12/11 05:58:46;;;;;;;20.33;11.30;;;;;;;-3.02;87.10;94766.25;4980398;28;20178;-80
2022/12/11 06:01:15;;;;;;;18.77;11.50;;;;;;;-3.06;87.00;94769.88;4970609;28;20212;-81
2022/12/11 06:03:41;;;;;;;19.23;11.07;;;;;;;-3.08;86.52;94766.63;4983371;28;20293;-80
2022/12/11 06:06:07;;;;;;;24.20;13.03;;;;;;;-3.29;88.44;94773.66;4991730;28;20232;-82
2022/12/11 06:08:32;;;;;;;18.47;11.97;;;;;;;-3.19;86.92;94778.16;4980457;28;20185;-81
2022/12/11 06:10:58;;;;;;;17.47;10.37;;;;;;;-3.25;87.96;94775.97;4963250;28;20580;-79
2022/12/11 06:13:23;;;;;;;20.83;12.07;;;;;;;-3.24;87.76;94772.53;4969181;28;20781;-81
2022/12/11 06:15:49;;;;;;;20.03;12.30;;;;;;;-3.32;87.87;94773.84;4971575;28;20773;-80
2022/12/11 06:18:14;;;;;;;19.70;12.73;;;;;;;-3.43;88.66;94774.44;4960178;28;20189;-81
2022/12/11 06:20:39;;;;;;;20.30;12.17;;;;;;;-3.48;88.53;94777.19;4956118;28;20367;-81
2022/12/11 06:23:05;;;;;;;23.73;13.60;;;;;;;-3.52;89.47;94774.91;4953809;28;20260;-80
2022/12/11 06:25:30;;;;;;;18.23;11.40;;;;;;;-3.54;89.34;94786.84;4952103;28;20213;-81
2022/12/11 06:27:56;;;;;;;25.93;15.20;;;;;;;-3.47;89.94;94778.84;4966008;28;20804;-81
2022/12/11 06:30:21;;;;;;;33.33;18.93;;;;;;;-3.38;89.50;94769.91;4971481;28;20214;-81
2022/12/11 06:32:46;;;;;;;37.90;24.17;;;;;;;-3.34;90.41;94775.66;4970415;28;20188;-79
2022/12/11 06:35:12;;;;;;;39.53;21.27;;;;;;;-3.41;90.10;94777.69;4963244;28;20209;-80
2022/12/11 06:37:37;;;;;;;34.27;19.23;;;;;;;-3.38;90.51;94772.44;4960443;28;20188;-80
2022/12/11 06:40:08;;;;;;;38.03;18.77;;;;;;;-3.36;91.43;94782.50;4955868;28;20196;-82
2022/12/11 06:42:34;;;;;;;38.93;19.90;;;;;;;-3.66;92.97;94773.09;4954847;28;20291;-81
2022/12/11 06:44:59;;;;;;;39.43;20.00;;;;;;;-3.75;93.93;94774.41;4972871;28;20232;-79
2022/12/11 06:47:25;;;;;;;35.57;18.83;;;;;;;-3.63;93.42;94769.56;4987526;28;20565;-79
2022/12/11 06:49:51;;;;;;;36.13;19.13;;;;;;;-3.73;94.27;94772.59;4980129;28;20193;-80
2022/12/11 06:52:16;;;;;;;40.10;21.53;;;;;;;-3.77;94.94;94778.75;4988672;28;20199;-81
2022/12/11 06:54:42;;;;;;;31.27;18.13;;;;;;;-3.77;95.17;94778.75;4974916;28;20212;-81
2022/12/11 06:57:08;;;;;;;34.67;19.53;;;;;;;-3.66;95.29;94782.44;4963238;28;20194;-82
2022/12/11 06:59:33;;;;;;;37.63;20.00;;;;;;;-3.67;94.87;94783.34;4975449;28;20193;-82
2022/12/11 07:01:58;;;;;;;43.50;24.17;;;;;;;-3.69;94.25;94785.16;4963489;28;20201;-82
2022/12/11 07:04:26;;;;;;;37.77;20.40;;;;;;;-3.66;94.44;94787.50;4973814;28;20212;-81
2022/12/11 07:06:52;;;;;;;32.63;19.07;;;;;;;-3.72;94.14;94788.66;4972013;28;20192;-81
2022/12/11 07:09:17;;;;;;;29.73;16.87;;;;;;;-3.78;93.99;94787.25;4961144;28;20261;-81
2022/12/11 07:11:42;;;;;;;28.63;16.77;;;;;;;-3.71;94.36;94783.50;4952493;28;20200;-81
2022/12/11 07:14:07;;;;;;;29.13;16.17;;;;;;;-3.66;93.94;94787.50;4971067;28;20747;-80
2022/12/11 07:16:33;;;;;;;25.63;15.13;;;;;;;-3.74;93.66;94787.91;4950204;28;20212;-81
2022/12/11 07:18:59;;;;;;;29.83;14.87;;;;;;;-3.69;93.06;94791.03;4967848;28;20223;-82
2022/12/11 07:21:24;;;;;;;25.33;14.43;;;;;;;-3.64;92.49;94793.31;4962433;28;20198;-81
2022/12/11 07:23:50;;;;;;;26.23;14.33;;;;;;;-3.57;92.56;94787.03;4967609;28;20564;-82
2022/12/11 07:26:17;;;;;;;25.90;15.43;;;;;;;-3.58;91.38;94793.81;4967014;28;20276;-82
2022/12/11 07:28:43;;;;;;;25.30;13.93;;;;;;;-3.44;90.80;94790.56;4969535;28;20210;-82
2022/12/11 07:31:19;;;;;;;21.37;13.47;;;;;;;-3.29;91.12;94789.72;4970016;28;20280;-83
2022/12/11 07:33:45;;;;;;;20.40;12.13;;;;;;;-3.34;89.41;94794.25;4969276;28;20188;-82
2022/12/11 07:36:11;;;;;;;22.60;14.27;;;;;;;-3.20;89.64;94796.84;4971561;28;20212;-82
2022/12/11 07:38:37;;;;;;;18.90;10.83;;;;;;;-3.07;89.06;94793.66;4960634;28;20215;-83
2022/12/11 07:41:04;;;;;;;17.17;11.20;;;;;;;-2.96;88.91;94784.53;4973601;28;20657;-83
2022/12/11 07:43:31;;;;;;;16.07;9.27;;;;;;;-3.00;88.26;94784.78;4952633;28;20189;-83
2022/12/11 07:46:00;;;;;;;19.93;9.37;;;;;;;-2.90;88.08;94791.81;4952019;28;20329;-81
2022/12/11 07:48:26;;;;;;;17.17;10.03;;;;;;;-2.82;87.80;94786.31;4955408;28;20275;-82
2022/12/11 07:50:51;;;;;;;20.13;10.17;;;;;;;-2.78;87.58;94781.84;4961273;28;20198;-81
2022/12/11 07:53:16;;;;;;;22.90;11.27;;;;;;;-2.73;86.24;94790.88;4966174;28;20189;-82
2022/12/11 07:55:41;;;;;;;16.93;9.57;;;;;;;-2.60;86.49;94785.91;4971291;28;20244;-81
2022/12/11 07:58:07;;;;;;;15.70;8.60;;;;;;;-2.46;85.79;94780.03;4954554;28;20195;-82
2022/12/11 08:00:32;;;;;;;13.60;8.40;;;;;;;-2.36;85.85;94786.22;4963877;28;20193;-81
2022/12/11 08:02:57;;;;;;;14.30;8.40;;;;;;;-2.33;85.12;94786.84;4969002;28;20219;-83
2022/12/11 08:05:23;;;;;;;16.03;8.77;;;;;;;-2.40;85.02;94783.03;4973804;28;20693;-82
2022/12/11 08:07:48;;;;;;;14.47;8.03;;;;;;;-2.46;85.17;94785.94;4971595;28;20612;-82
2022/12/11 08:10:14;;;;;;;16.43;9.03;;;;;;;-2.49;85.75;94782.75;4964786;28;20570;-83
2022/12/11 08:12:39;;;;;;;12.43;8.20;;;;;;;-2.47;85.92;94783.47;4977049;28;20189;-82
2022/12/11 08:15:05;;;;;;;11.23;7.57;;;;;;;-2.44;86.08;94788.38;4957679;28;20198;-82
2022/12/11 08:17:30;;;;;;;16.90;9.37;;;;;;;-2.46;85.70;94795.28;4969715;28;20250;-82
2022/12/11 08:19:55;;;;;;;14.30;8.63;;;;;;;-2.36;85.97;94786.22;4963816;28;20199;-82
2022/12/11 08:22:21;;;;;;;15.00;10.00;;;;;;;-2.31;85.25;94794.38;4959460;28;20236;-81
2022/12/11 08:24:46;;;;;;;20.37;10.50;;;;;;;-2.13;84.01;94798.41;4979902;28;20299;-82
2022/12/11 08:27:11;;;;;;;16.00;10.33;;;;;;;-2.28;84.07;94795.06;4965297;28;20189;-81
2022/12/11 08:29:37;;;;;;;16.13;11.07;;;;;;;-2.15;84.32;94799.41;4956158;28;20604;-81
2022/12/11 08:32:02;;;;;;;23.67;15.10;;;;;;;-2.33;85.56;94798.75;4967986;28;20197;-83
2022/12/11 08:34:28;;;;;;;22.83;12.93;;;;;;;-2.48;86.51;94795.34;4977457;28;20209;-82
2022/12/11 08:36:53;;;;;;;19.40;12.80;;;;;;;-2.58;87.26;94796.78;4967883;28;20200;-81
2022/12/11 08:39:18;;;;;;;20.80;12.50;;;;;;;-2.38;86.08;94799.03;4957920;28;20564;-80
2022/12/11 08:41:43;;;;;;;17.73;11.57;;;;;;;-2.21;86.16;94799.75;4954367;28;20203;-82
2022/12/11 08:44:10;;;;;;;19.73;11.90;;;;;;;-2.14;85.61;94801.03;4965171;28;20222;-82
2022/12/11 08:46:36;;;;;;;17.70;11.03;;;;;;;-2.20;85.59;94797.16;4970017;28;20188;-81
2022/12/11 08:49:01;;;;;;;18.40;11.40;;;;;;;-2.07;84.47;94803.16;4971824;28;20188;-80
2022/12/11 08:51:28;;;;;;;19.60;11.30;;;;;;;-2.08;84.03;94804.06;4945901;28;20253;-81
2022/12/11 08:53:55;;;;;;;17.00;10.57;;;;;;;-2.15;84.45;94799.41;4965461;28;20222;-81
2022/12/11 08:56:22;;;;;;;21.63;12.67;;;;;;;-2.30;84.83;94796.88;4954299;28;20202;-82
2022/12/11 08:58:47;;;;;;;21.17;12.33;;;;;;;-2.04;83.87;94797.88;4952090;28;20196;-82
2022/12/11 09:01:20;;;;;;;24.80;13.33;;;;;;;-2.01;83.69;94799.44;4967078;28;20240;-82
2022/12/11 09:03:46;;;;;;;24.53;11.43;;;;;;;-2.01;83.80;94800.25;4969720;28;20260;-81
2022/12/11 09:06:14;;;;;;;24.23;13.07;;;;;;;-2.03;83.45;94798.72;4991162;28;20303;-82
2022/12/11 09:08:40;;;;;;;23.43;14.07;;;;;;;-2.02;83.62;94793.53;4986336;28;20195;-82
2022/12/11 09:11:11;;;;;;;25.30;14.70;;;;;;;-1.95;83.77;94795.69;4963572;28;20226;-81
2022/12/11 09:13:37;;;;;;;23.37;14.20;;;;;;;-1.89;83.89;94793.63;4988578;28;20203;-81
2022/12/11 09:16:08;;;;;;;28.13;17.63;;;;;;;-1.74;83.49;94789.34;4975428;28;20304;-83
2022/12/11 09:18:33;;;;;;;27.03;15.83;;;;;;;-1.77;83.13;94785.25;4998418;28;20180;-82
2022/12/11 09:21:03;;;;;;;27.40;16.27;;;;;;;-1.71;83.04;94786.59;4977304;28;20559;-81
2022/12/11 09:23:28;;;;;;;25.67;14.23;;;;;;;-1.82;83.43;94791.53;4994404;28;20575;-80
2022/12/11 09:25:53;;;;;;;22.80;12.97;;;;;;;-1.69;82.50;94783.97;4984385;28;20294;-80
2022/12/11 09:28:19;;;;;;;24.43;14.40;;;;;;;-1.65;82.93;94781.16;4986102;28;20655;-81
2022/12/11 09:30:44;;;;;;;23.23;13.70;;;;;;;-1.77;82.94;94777.63;4992660;28;20182;-81
2022/12/11 09:33:10;;;;;;;23.10;13.87;;;;;;;-1.74;83.24;94776.63;4991741;28;20190;-82
2022/12/11 09:35:36;;;;;;;24.57;15.50;;;;;;;-1.46;83.13;94780.84;4969311;28;20220;-82
2022/12/11 09:38:01;;;;;;;22.70;13.80;;;;;;;-1.57;82.47;94778.97;4979918;28;20847;-82
2022/12/11 09:40:27;;;;;;;23.33;13.20;;;;;;;-1.37;82.52;94779.47;4992634;28;20183;-79
2022/12/11 09:42:57;;;;;;;24.33;14.07;;;;;;;-1.30;82.15;94775.63;4988117;28;20199;-80
2022/12/11 09:45:22;;;;;;;20.60;12.77;;;;;;;-1.20;81.55;94774.16;4986610;28;20195;-82
2022/12/11 09:47:51;;;;;;;22.97;13.37;;;;;;;-1.05;81.60;94772.38;4991051;28;20604;-82
2022/12/11 09:50:24;;;;;;;23.47;12.87;;;;;;;-1.03;80.43;94775.63;4978544;28;20227;-78
2022/12/11 09:53:01;;;;;;;21.37;12.57;;;;;;;-0.83;80.66;94772.63;4969141;28;20192;-81
2022/12/11 09:55:34;;;;;;;18.60;10.67;;;;;;;-0.80;79.89;94762.22;4990341;28;20269;-80
2022/12/11 09:58:18;;;;;;;19.47;10.73;;;;;;;-0.71;78.60;94766.75;4977664;28;20702;-81
2022/12/11 10:00:50;;;;;;;18.10;9.33;;;;;;;-0.72;78.28;94765.09;4993225;28;20191;-81
2022/12/11 10:03:57;;;;;;;17.43;9.60;;;;;;;-0.68;77.47;94766.56;4973065;28;20186;-81
2022/12/11 10:07:01;;;;;;;17.50;9.23;;;;;;;-0.69;77.46;94761.56;4964737;28;20203;-81
2022/12/11 10:09:31;;;;;;;13.43;8.33;;;;;;;-0.51;76.27;94755.28;4984172;28;20250;-82
2022/12/11 10:12:07;;;;;;;15.03;8.60;;;;;;;-0.66;75.30;94758.81;4989810;28;20250;-81
2022/12/11 10:14:44;;;;;;;18.37;9.47;;;;;;;-0.51;75.61;94755.28;4995556;28;20326;-79
2022/12/11 10:17:24;;;;;;;17.47;9.57;;;;;;;-0.50;75.98;94756.91;4996881;28;20302;-81
2022/12/11 10:19:49;;;;;;;16.17;8.90;;;;;;;-0.35;74.55;94760.19;4984556;28;20187;-81
2022/12/11 10:22:22;;;;;;;13.60;9.13;;;;;;;-0.22;74.46;94755.88;4978727;28;20187;-81
2022/12/11 10:24:55;;;;;;;17.10;9.30;;;;;;;0.03;74.98;94749.97;4981453;28;20242;-81
2022/12/11 10:27:22;;;;;;;13.27;8.77;;;;;;;0.08;74.18;94747.09;4991502;28;20191;-81
2022/12/11 10:29:55;;;;;;;18.73;10.40;;;;;;;0.31;74.72;94748.91;4961117;28;20242;-83
2022/12/11 10:32:23;;;;;;;16.70;10.50;;;;;;;0.40;73.49;94745.72;4978951;28;20347;-82
2022/12/11 10:34:53;;;;;;;17.03;10.87;;;;;;;0.36;72.61;94740.94;4983315;28;20574;-83
2022/12/11 10:37:18;;;;;;;16.53;10.40;;;;;;;0.54;72.48;94737.94;4972131;28;20198;-81
2022/12/11 10:39:43;;;;;;;15.03;9.50;;;;;;;0.76;71.55;94728.75;4977071;28;20671;-80
2022/12/11 10:42:17;;;;;;;15.47;9.80;;;;;;;0.85;71.89;94731.47;4989346;28;20179;-82
2022/12/11 10:45:01;;;;;;;14.57;8.33;;;;;;;0.88;70.03;94724.50;4991883;28;20696;-80
2022/12/11 10:47:26;;;;;;;12.13;7.67;;;;;;;0.95;70.33;94725.69;4990353;28;20188;-81
2022/12/11 10:49:57;;;;;;;12.47;7.63;;;;;;;1.05;69.67;94719.00;4977853;28;20181;-80
2022/12/11 10:52:31;;;;;;;13.57;7.00;;;;;;;0.93;68.02;94717.31;4984045;28;20969;-80
2022/12/11 10:55:21;;;;;;;11.37;7.67;;;;;;;1.12;68.01;94712.50;4992685;28;20307;-81
2022/12/11 10:58:02;;;;;;;21.63;12.47;;;;;;;0.98;69.21;94710.16;4985892;28;20195;-80
2022/12/11 11:00:39;;;;;;;18.67;12.37;;;;;;;1.12;70.14;94712.50;4971766;28;20191;-80
2022/12/11 11:03:17;;;;;;;20.20;13.23;;;;;;;1.07;70.60;94715.41;4976024;28;20207;-81
2022/12/11 11:05:42;;;;;;;17.53;10.40;;;;;;;1.12;69.10;94712.50;4977455;28;20249;-82
2022/12/11 11:08:17;;;;;;;15.70;9.20;;;;;;;1.03;68.89;94705.50;4974454;28;20602;-80
2022/12/11 11:10:50;;;;;;;15.70;9.50;;;;;;;1.20;69.90;94694.06;4982921;28;20264;-82
2022/12/11 11:13:16;;;;;;;18.20;10.60;;;;;;;1.32;69.67;94699.09;4980590;28;20979;-82
2022/12/11 11:15:41;;;;;;;19.40;11.53;;;;;;;1.25;69.11;94697.94;4979092;28;20216;-81
2022/12/11 11:18:26;;;;;;;19.53;11.67;;;;;;;1.10;70.45;94704.97;4984175;28;20188;-82
2022/12/11 11:20:52;;;;;;;18.83;11.00;;;;;;;1.42;69.40;94697.50;4991555;28;20192;-81
2022/12/11 11:23:20;;;;;;;21.50;12.47;;;;;;;1.30;70.01;94695.00;4977087;28;20237;-82
2022/12/11 11:25:55;;;;;;;22.07;13.03;;;;;;;0.84;72.34;94699.16;4983513;28;20212;-81
2022/12/11 11:28:26;;;;;;;19.90;11.77;;;;;;;1.00;70.78;94695.50;4973656;28;20238;-81
2022/12/11 11:31:01;;;;;;;17.13;11.17;;;;;;;0.20;72.08;94705.41;4978278;28;20286;-82
2022/12/11 11:33:28;;;;;;;19.23;11.90;;;;;;;0.15;73.29;94703.16;4976345;28;20647;-81
2022/12/11 11:35:59;;;;;;;18.67;9.77;;;;;;;0.42;71.35;94714.94;4985894;28;20581;-82